sensor_id;sensor_type;location;lat;lon;timestamp;pressure;altitude;pressure_sealevel;temperature;humidity
72857;BME280;62742;52.136;4.500;2023-04-21T00:01:05;101711.41;;;7.99;88.11
72857;BME280;62742;52.136;4.500;2023-04-21T00:03:34;101698.31;;;8.01;88.36
72857;BME280;62742;52.136;4.500;2023-04-21T00:06:04;101687.84;;;7.98;88.39
72857;BME280;62742;52.136;4.500;2023-04-21T00:08:36;101687.75;;;7.90;89.70
72857;BME280;62742;52.136;4.500;2023-04-21T00:11:06;101684.31;;;7.93;90.35
72857;BME280;62742;52.136;4.500;2023-04-21T00:13:33;101692.16;;;7.94;90.39
72857;BME280;62742;52.136;4.500;2023-04-21T00:15:59;101686.22;;;8.14;88.93
72857;BME280;62742;52.136;4.500;2023-04-21T00:18:26;101694.88;;;8.07;90.32
72857;BME280;62742;52.136;4.500;2023-04-21T00:20:52;101690.59;;;8.18;89.80
72857;BME280;62742;52.136;4.500;2023-04-21T00:23:18;101691.47;;;8.17;89.74
72857;BME280;62742;52.136;4.500;2023-04-21T00:25:44;101698.38;;;8.09;90.68
72857;BME280;62742;52.136;4.500;2023-04-21T00:28:11;101705.56;;;8.33;89.60
72857;BME280;62742;52.136;4.500;2023-04-21T00:30:37;101702.03;;;8.28;90.31
72857;BME280;62742;52.136;4.500;2023-04-21T00:33:03;101695.06;;;8.31;89.77
72857;BME280;62742;52.136;4.500;2023-04-21T00:35:30;101691.56;;;8.28;89.81
72857;BME280;62742;52.136;4.500;2023-04-21T00:37:56;101692.41;;;8.27;90.21
72857;BME280;62742;52.136;4.500;2023-04-21T00:40:22;101681.94;;;8.28;89.95
72857;BME280;62742;52.136;4.500;2023-04-21T00:42:49;101677.56;;;8.22;90.67
72857;BME280;62742;52.136;4.500;2023-04-21T00:45:15;101666.13;;;8.10;90.75
72857;BME280;62742;52.136;4.500;2023-04-21T00:47:41;101670.56;;;8.23;90.23
72857;BME280;62742;52.136;4.500;2023-04-21T00:50:08;101660.03;;;8.12;91.16
72857;BME280;62742;52.136;4.500;2023-04-21T00:52:35;101651.22;;;8.02;91.96
72857;BME280;62742;52.136;4.500;2023-04-21T00:55:05;101637.31;;;8.11;92.05
72857;BME280;62742;52.136;4.500;2023-04-21T00:57:32;101640.09;;;8.31;90.99
72857;BME280;62742;52.136;4.500;2023-04-21T01:00:02;101646.94;;;8.14;90.92
72857;BME280;62742;52.136;4.500;2023-04-21T01:02:31;101643.50;;;8.21;91.72
72857;BME280;62742;52.136;4.500;2023-04-21T01:04:59;101646.06;;;8.16;91.01
72857;BME280;62742;52.136;4.500;2023-04-21T01:07:25;101640.84;;;8.12;91.72
72857;BME280;62742;52.136;4.500;2023-04-21T01:09:53;101636.44;;;8.11;92.14
72857;BME280;62742;52.136;4.500;2023-04-21T01:12:19;101641.88;;;8.38;91.60
72857;BME280;62742;52.136;4.500;2023-04-21T01:14:45;101645.31;;;8.25;92.08
72857;BME280;62742;52.136;4.500;2023-04-21T01:17:12;101640.09;;;8.31;91.99
72857;BME280;62742;52.136;4.500;2023-04-21T01:19:42;101636.63;;;8.37;90.55
72857;BME280;62742;52.136;4.500;2023-04-21T01:22:10;101628.69;;;8.20;91.78
72857;BME280;62742;52.136;4.500;2023-04-21T01:24:41;101628.72;;;8.29;92.48
72857;BME280;62742;52.136;4.500;2023-04-21T01:27:11;101633.91;;;8.20;92.47
72857;BME280;62742;52.136;4.500;2023-04-21T01:29:44;101631.38;;;8.34;92.16
72857;BME280;62742;52.136;4.500;2023-04-21T01:32:13;101626.00;;;8.14;92.64
72857;BME280;62742;52.136;4.500;2023-04-21T01:34:44;101625.13;;;8.12;93.53
72857;BME280;62742;52.136;4.500;2023-04-21T01:37:12;101626.09;;;8.26;92.19
72857;BME280;62742;52.136;4.500;2023-04-21T01:39:41;101622.59;;;8.24;92.68
72857;BME280;62742;52.136;4.500;2023-04-21T01:42:09;101626.84;;;8.08;92.72
72857;BME280;62742;52.136;4.500;2023-04-21T01:44:36;101616.44;;;8.17;93.11
72857;BME280;62742;52.136;4.500;2023-04-21T01:47:02;101624.13;;;7.94;94.05
72857;BME280;62742;52.136;4.500;2023-04-21T01:49:28;101612.06;;;8.13;93.81
72857;BME280;62742;52.136;4.500;2023-04-21T01:51:55;101617.22;;;8.07;93.54
72857;BME280;62742;52.136;4.500;2023-04-21T01:54:21;101614.59;;;8.05;94.15
72857;BME280;62742;52.136;4.500;2023-04-21T01:56:47;101611.97;;;8.05;93.96
72857;BME280;62742;52.136;4.500;2023-04-21T01:59:13;101609.44;;;8.16;94.24
72857;BME280;62742;52.136;4.500;2023-04-21T02:01:39;101608.47;;;8.00;94.37
72857;BME280;62742;52.136;4.500;2023-04-21T02:04:06;101591.00;;;7.98;94.65
72857;BME280;62742;52.136;4.500;2023-04-21T02:06:32;101591.97;;;8.12;94.25
72857;BME280;62742;52.136;4.500;2023-04-21T02:08:58;101586.69;;;8.06;94.36
72857;BME280;62742;52.136;4.500;2023-04-21T02:11:24;101587.50;;;7.97;94.79
72857;BME280;62742;52.136;4.500;2023-04-21T02:13:54;101596.22;;;7.96;95.64
72857;BME280;62742;52.136;4.500;2023-04-21T02:16:21;101587.56;;;8.07;94.64
72857;BME280;62742;52.136;4.500;2023-04-21T02:18:54;101585.75;;;7.96;94.47
72857;BME280;62742;52.136;4.500;2023-04-21T02:21:27;101584.00;;;7.95;95.29
72857;BME280;62742;52.136;4.500;2023-04-21T02:23:54;101584.91;;;8.02;94.86
72857;BME280;62742;52.136;4.500;2023-04-21T02:26:20;101585.84;;;8.10;95.42
72857;BME280;62742;52.136;4.500;2023-04-21T02:28:46;101577.91;;;8.01;94.37
72857;BME280;62742;52.136;4.500;2023-04-21T02:31:12;101590.22;;;8.14;94.49
72857;BME280;62742;52.136;4.500;2023-04-21T02:33:39;101587.59;;;8.10;94.41
72857;BME280;62742;52.136;4.500;2023-04-21T02:36:05;101592.69;;;7.90;96.03
72857;BME280;62742;52.136;4.500;2023-04-21T02:38:32;101583.03;;;7.81;96.74
72857;BME280;62742;52.136;4.500;2023-04-21T02:40:58;101585.78;;;7.99;96.56
72857;BME280;62742;52.136;4.500;2023-04-21T02:43:24;101581.38;;;7.95;95.98
72857;BME280;62742;52.136;4.500;2023-04-21T02:45:51;101577.03;;;7.97;96.26
72857;BME280;62742;52.136;4.500;2023-04-21T02:48:17;101571.00;;;8.09;95.47
72857;BME280;62742;52.136;4.500;2023-04-21T02:50:50;101570.94;;;7.98;95.01
72857;BME280;62742;52.136;4.500;2023-04-21T02:53:21;101564.84;;;8.01;95.95
72857;BME280;62742;52.136;4.500;2023-04-21T02:55:47;101557.88;;;8.01;95.74
72857;BME280;62742;52.136;4.500;2023-04-21T02:58:14;101557.88;;;8.00;94.52
72857;BME280;62742;52.136;4.500;2023-04-21T03:00:42;101557.88;;;8.01;95.65
72857;BME280;62742;52.136;4.500;2023-04-21T03:03:08;101552.56;;;7.92;96.56
72857;BME280;62742;52.136;4.500;2023-04-21T03:05:34;101559.63;;;7.99;96.35
72857;BME280;62742;52.136;4.500;2023-04-21T03:08:01;101561.44;;;8.10;95.14
72857;BME280;62742;52.136;4.500;2023-04-21T03:10:27;101550.88;;;8.00;95.68
72857;BME280;62742;52.136;4.500;2023-04-21T03:12:53;101546.50;;;7.96;95.32
72857;BME280;62742;52.136;4.500;2023-04-21T03:15:20;101550.00;;;8.00;95.02
72857;BME280;62742;52.136;4.500;2023-04-21T03:17:50;101552.69;;;8.11;95.36
72857;BME280;62742;52.136;4.500;2023-04-21T03:20:16;101553.56;;;8.13;94.53
72857;BME280;62742;52.136;4.500;2023-04-21T03:22:43;101556.22;;;8.17;94.43
72857;BME280;62742;52.136;4.500;2023-04-21T03:25:09;101557.09;;;8.13;95.17
72857;BME280;62742;52.136;4.500;2023-04-21T03:27:36;101564.03;;;8.07;95.60
72857;BME280;62742;52.136;4.500;2023-04-21T03:30:03;101556.06;;;7.91;96.56
72857;BME280;62742;52.136;4.500;2023-04-21T03:32:30;101550.88;;;7.94;96.98
72857;BME280;62742;52.136;4.500;2023-04-21T03:34:56;101556.09;;;7.97;95.64
72857;BME280;62742;52.136;4.500;2023-04-21T03:37:22;101556.97;;;8.01;95.97
72857;BME280;62742;52.136;4.500;2023-04-21T03:39:48;101553.56;;;8.11;94.86
72857;BME280;62742;52.136;4.500;2023-04-21T03:42:15;101527.25;;;7.86;96.63
72857;BME280;62742;52.136;4.500;2023-04-21T03:44:41;101541.19;;;7.85;96.41
72857;BME280;62742;52.136;4.500;2023-04-21T03:47:07;101528.00;;;7.72;97.34
72857;BME280;62742;52.136;4.500;2023-04-21T03:49:40;101532.47;;;7.85;97.33
72857;BME280;62742;52.136;4.500;2023-04-21T03:52:06;101516.69;;;7.74;97.54
72857;BME280;62742;52.136;4.500;2023-04-21T03:54:33;101521.97;;;7.77;97.30
72857;BME280;62742;52.136;4.500;2023-04-21T03:57:02;101514.19;;;7.88;97.05
72857;BME280;62742;52.136;4.500;2023-04-21T03:59:28;101502.81;;;7.84;96.67
72857;BME280;62742;52.136;4.500;2023-04-21T04:01:54;101508.94;;;7.86;96.67
72857;BME280;62742;52.136;4.500;2023-04-21T04:04:20;101512.31;;;7.73;97.28
72857;BME280;62742;52.136;4.500;2023-04-21T04:06:46;101504.47;;;7.72;98.79
72857;BME280;62742;52.136;4.500;2023-04-21T04:09:13;101513.28;;;7.84;97.60
72857;BME280;62742;52.136;4.500;2023-04-21T04:11:41;101509.84;;;7.92;97.39
72857;BME280;62742;52.136;4.500;2023-04-21T04:14:07;101509.81;;;7.90;97.27
72857;BME280;62742;52.136;4.500;2023-04-21T04:16:34;101504.56;;;7.89;96.82
72857;BME280;62742;52.136;4.500;2023-04-21T04:19:00;101499.34;;;7.87;97.64
72857;BME280;62742;52.136;4.500;2023-04-21T04:21:27;101498.44;;;7.85;97.83
72857;BME280;62742;52.136;4.500;2023-04-21T04:23:54;101509.81;;;7.90;97.47
72857;BME280;62742;52.136;4.500;2023-04-21T04:26:21;101500.19;;;7.83;97.32
72857;BME280;62742;52.136;4.500;2023-04-21T04:28:49;101501.94;;;7.87;97.47
72857;BME280;62742;52.136;4.500;2023-04-21T04:31:16;101502.88;;;7.95;97.34
72857;BME280;62742;52.136;4.500;2023-04-21T04:33:45;101499.31;;;7.85;97.86
72857;BME280;62742;52.136;4.500;2023-04-21T04:36:11;101498.34;;;7.70;98.30
72857;BME280;62742;52.136;4.500;2023-04-21T04:38:38;101496.66;;;7.78;99.03
72857;BME280;62742;52.136;4.500;2023-04-21T04:41:05;101498.53;;;7.94;96.96
72857;BME280;62742;52.136;4.500;2023-04-21T04:43:33;101495.03;;;7.97;97.04
72857;BME280;62742;52.136;4.500;2023-04-21T04:46:02;101502.84;;;7.88;98.14
72857;BME280;62742;52.136;4.500;2023-04-21T04:48:28;101501.03;;;7.77;98.35
72857;BME280;62742;52.136;4.500;2023-04-21T04:50:54;101505.50;;;7.95;97.38
72857;BME280;62742;52.136;4.500;2023-04-21T04:53:20;101510.78;;;8.01;97.39
72857;BME280;62742;52.136;4.500;2023-04-21T04:55:48;101503.75;;;7.97;97.58
72857;BME280;62742;52.136;4.500;2023-04-21T04:58:14;101512.53;;;8.07;97.19
72857;BME280;62742;52.136;4.500;2023-04-21T05:00:40;101515.13;;;7.99;96.86
72857;BME280;62742;52.136;4.500;2023-04-21T05:03:06;101514.19;;;7.91;97.13
72857;BME280;62742;52.136;4.500;2023-04-21T05:05:33;101522.16;;;8.13;96.56
72857;BME280;62742;52.136;4.500;2023-04-21T05:07:59;101526.50;;;8.08;95.34
72857;BME280;62742;52.136;4.500;2023-04-21T05:10:28;101525.66;;;8.12;96.37
72857;BME280;62742;52.136;4.500;2023-04-21T05:12:54;101522.97;;;7.98;97.15
72857;BME280;62742;52.136;4.500;2023-04-21T05:15:21;101523.06;;;8.15;96.91
72857;BME280;62742;52.136;4.500;2023-04-21T05:17:49;101519.53;;;8.13;96.89
72857;BME280;62742;52.136;4.500;2023-04-21T05:20:15;101515.28;;;8.27;95.81
72857;BME280;62742;52.136;4.500;2023-04-21T05:22:41;101513.50;;;8.26;95.53
72857;BME280;62742;52.136;4.500;2023-04-21T05:25:09;101516.09;;;8.23;96.60
72857;BME280;62742;52.136;4.500;2023-04-21T05:27:36;101514.28;;;8.03;98.03
72857;BME280;62742;52.136;4.500;2023-04-21T05:30:02;101517.00;;;8.27;96.82
72857;BME280;62742;52.136;4.500;2023-04-21T05:32:29;101514.34;;;8.17;96.92
72857;BME280;62742;52.136;4.500;2023-04-21T05:34:55;101517.06;;;8.36;97.79
72857;BME280;62742;52.136;4.500;2023-04-21T05:37:21;101512.69;;;8.39;96.72
72857;BME280;62742;52.136;4.500;2023-04-21T05:39:47;101519.72;;;8.43;96.34
72857;BME280;62742;52.136;4.500;2023-04-21T05:42:14;101519.69;;;8.40;96.33
72857;BME280;62742;52.136;4.500;2023-04-21T05:44:40;101525.03;;;8.54;95.56
72857;BME280;62742;52.136;4.500;2023-04-21T05:47:07;101524.13;;;8.55;95.58
72857;BME280;62742;52.136;4.500;2023-04-21T05:49:34;101528.50;;;8.52;96.13
72857;BME280;62742;52.136;4.500;2023-04-21T05:52:00;101533.75;;;8.53;96.54
72857;BME280;62742;52.136;4.500;2023-04-21T05:54:26;101533.75;;;8.55;96.06
72857;BME280;62742;52.136;4.500;2023-04-21T05:56:52;101532.84;;;8.50;96.76
72857;BME280;62742;52.136;4.500;2023-04-21T05:59:18;101535.50;;;8.59;96.51
72857;BME280;62742;52.136;4.500;2023-04-21T06:01:45;101535.53;;;8.65;96.34
72857;BME280;62742;52.136;4.500;2023-04-21T06:04:11;101539.00;;;8.55;96.26
72857;BME280;62742;52.136;4.500;2023-04-21T06:06:38;101535.53;;;8.68;95.45
72857;BME280;62742;52.136;4.500;2023-04-21T06:09:05;101532.06;;;8.77;95.95
72857;BME280;62742;52.136;4.500;2023-04-21T06:11:33;101531.19;;;8.79;96.49
72857;BME280;62742;52.136;4.500;2023-04-21T06:14:00;101536.47;;;8.86;97.28
72857;BME280;62742;52.136;4.500;2023-04-21T06:16:26;101541.75;;;8.93;96.50
72857;BME280;62742;52.136;4.500;2023-04-21T06:18:55;101539.13;;;9.13;95.64
72857;BME280;62742;52.136;4.500;2023-04-21T06:21:23;101534.78;;;9.11;95.23
72857;BME280;62742;52.136;4.500;2023-04-21T06:23:49;101535.69;;;9.30;95.32
72857;BME280;62742;52.136;4.500;2023-04-21T06:26:16;101544.41;;;9.23;94.75
72857;BME280;62742;52.136;4.500;2023-04-21T06:28:42;101547.03;;;9.27;95.27
72857;BME280;62742;52.136;4.500;2023-04-21T06:31:08;101544.41;;;9.24;95.31
72857;BME280;62742;52.136;4.500;2023-04-21T06:33:39;101546.16;;;9.30;95.40
72857;BME280;62742;52.136;4.500;2023-04-21T06:36:06;101539.16;;;9.29;95.48
72857;BME280;62742;52.136;4.500;2023-04-21T06:38:32;101544.41;;;9.24;96.97
72857;BME280;62742;52.136;4.500;2023-04-21T06:40:58;101546.16;;;9.30;96.92
72857;BME280;62742;52.136;4.500;2023-04-21T06:43:25;101540.03;;;9.63;94.46
72857;BME280;62742;52.136;4.500;2023-04-21T06:45:51;101540.94;;;9.61;95.12
72857;BME280;62742;52.136;4.500;2023-04-21T06:48:17;101525.16;;;9.70;93.95
72857;BME280;62742;52.136;4.500;2023-04-21T06:50:43;101537.41;;;9.65;93.21
72857;BME280;62742;52.136;4.500;2023-04-21T06:53:11;101539.19;;;9.69;93.45
72857;BME280;62742;52.136;4.500;2023-04-21T06:55:37;101527.78;;;9.73;93.38
72857;BME280;62742;52.136;4.500;2023-04-21T06:58:03;101533.03;;;9.54;95.23
72857;BME280;62742;52.136;4.500;2023-04-21T07:00:33;101525.16;;;9.70;94.03
72857;BME280;62742;52.136;4.500;2023-04-21T07:03:00;101523.41;;;9.78;93.38
72857;BME280;62742;52.136;4.500;2023-04-21T07:05:26;101526.00;;;9.98;92.61
72857;BME280;62742;52.136;4.500;2023-04-21T07:07:53;101518.09;;;10.15;92.57
72857;BME280;62742;52.136;4.500;2023-04-21T07:10:27;101528.59;;;10.12;92.99
72857;BME280;62742;52.136;4.500;2023-04-21T07:12:54;101524.19;;;10.37;92.74
72857;BME280;62742;52.136;4.500;2023-04-21T07:15:21;101520.59;;;10.58;92.30
72857;BME280;62742;52.136;4.500;2023-04-21T07:17:47;101517.84;;;10.80;90.49
72857;BME280;62742;52.136;4.500;2023-04-21T07:20:13;101523.03;;;10.89;89.41
72857;BME280;62742;52.136;4.500;2023-04-21T07:22:39;101523.03;;;10.94;89.33
72857;BME280;62742;52.136;4.500;2023-04-21T07:25:06;101520.38;;;10.97;89.29
72857;BME280;62742;52.136;4.500;2023-04-21T07:27:33;101514.28;;;10.89;89.70
72857;BME280;62742;52.136;4.500;2023-04-21T07:30:02;101522.09;;;11.01;90.12
72857;BME280;62742;52.136;4.500;2023-04-21T07:32:29;101514.09;;;11.18;89.09
72857;BME280;62742;52.136;4.500;2023-04-21T07:34:56;101509.69;;;11.23;89.95
72857;BME280;62742;52.136;4.500;2023-04-21T07:37:22;101508.00;;;11.11;90.17
72857;BME280;62742;52.136;4.500;2023-04-21T07:39:48;101517.75;;;10.98;87.01
72857;BME280;62742;52.136;4.500;2023-04-21T07:42:15;101521.25;;;11.00;87.42
72857;BME280;62742;52.136;4.500;2023-04-21T07:44:41;101516.63;;;11.29;86.93
72857;BME280;62742;52.136;4.500;2023-04-21T07:47:07;101519.25;;;11.33;86.03
72857;BME280;62742;52.136;4.500;2023-04-21T07:49:33;101522.06;;;11.09;86.57
72857;BME280;62742;52.136;4.500;2023-04-21T07:51:59;101518.59;;;11.02;86.07
72857;BME280;62742;52.136;4.500;2023-04-21T07:54:26;101530.00;;;10.96;85.09
72857;BME280;62742;52.136;4.500;2023-04-21T07:56:52;101531.75;;;11.03;84.90
72857;BME280;62742;52.136;4.500;2023-04-21T07:59:18;101527.22;;;11.24;85.09
72857;BME280;62742;52.136;4.500;2023-04-21T08:01:44;101523.66;;;11.27;85.95
72857;BME280;62742;52.136;4.500;2023-04-21T08:04:11;101530.69;;;11.29;85.58
72857;BME280;62742;52.136;4.500;2023-04-21T08:06:37;101528.16;;;11.14;86.85
72857;BME280;62742;52.136;4.500;2023-04-21T08:09:03;101524.41;;;11.42;83.22
72857;BME280;62742;52.136;4.500;2023-04-21T08:11:29;101526.13;;;11.51;82.85
72857;BME280;62742;52.136;4.500;2023-04-21T08:13:55;101523.53;;;11.44;83.13
72857;BME280;62742;52.136;4.500;2023-04-21T08:16:23;101525.28;;;11.46;82.83
72857;BME280;62742;52.136;4.500;2023-04-21T08:18:49;101517.19;;;11.66;81.71
72857;BME280;62742;52.136;4.500;2023-04-21T08:21:15;101517.19;;;11.69;83.45
72857;BME280;62742;52.136;4.500;2023-04-21T08:23:41;101518.78;;;11.84;81.30
72857;BME280;62742;52.136;4.500;2023-04-21T08:26:08;101516.06;;;11.96;80.88
72857;BME280;62742;52.136;4.500;2023-04-21T08:28:34;101522.28;;;11.85;83.91
72857;BME280;62742;52.136;4.500;2023-04-21T08:31:00;101523.28;;;11.74;81.85
72857;BME280;62742;52.136;4.500;2023-04-21T08:33:27;101528.41;;;11.88;80.40
72857;BME280;62742;52.136;4.500;2023-04-21T08:35:53;101518.69;;;11.98;80.74
72857;BME280;62742;52.136;4.500;2023-04-21T08:38:20;101517.53;;;12.24;81.96
72857;BME280;62742;52.136;4.500;2023-04-21T08:40:46;101519.78;;;12.54;79.06
72857;BME280;62742;52.136;4.500;2023-04-21T08:43:14;101516.09;;;12.68;80.78
72857;BME280;62742;52.136;4.500;2023-04-21T08:45:41;101519.41;;;12.82;78.88
72857;BME280;62742;52.136;4.500;2023-04-21T08:48:08;101508.66;;;12.95;77.18
72857;BME280;62742;52.136;4.500;2023-04-21T08:50:41;101518.63;;;13.38;75.20
72857;BME280;62742;52.136;4.500;2023-04-21T08:53:10;101511.22;;;13.01;75.45
72857;BME280;62742;52.136;4.500;2023-04-21T08:55:36;101506.41;;;13.29;76.23
72857;BME280;62742;52.136;4.500;2023-04-21T08:58:03;101511.66;;;13.31;75.22
72857;BME280;62742;52.136;4.500;2023-04-21T09:00:31;101495.66;;;13.43;74.19
72857;BME280;62742;52.136;4.500;2023-04-21T09:02:58;101503.91;;;13.73;75.28
72857;BME280;62742;52.136;4.500;2023-04-21T09:05:26;101502.41;;;14.08;74.15
72857;BME280;62742;52.136;4.500;2023-04-21T09:08:10;101500.75;;;14.46;70.40
72857;BME280;62742;52.136;4.500;2023-04-21T09:10:45;101500.38;;;15.03;68.55
72857;BME280;62742;52.136;4.500;2023-04-21T09:13:14;101495.72;;;15.13;67.12
72857;BME280;62742;52.136;4.500;2023-04-21T09:15:43;101486.13;;;15.45;65.93
72857;BME280;62742;52.136;4.500;2023-04-21T09:18:18;101493.56;;;15.65;64.79
72857;BME280;62742;52.136;4.500;2023-04-21T09:20:46;101482.09;;;15.99;65.86
72857;BME280;62742;52.136;4.500;2023-04-21T09:23:14;101485.22;;;15.46;66.49
72857;BME280;62742;52.136;4.500;2023-04-21T09:25:42;101486.91;;;15.48;66.43
72857;BME280;62742;52.136;4.500;2023-04-21T09:28:11;101488.06;;;15.02;64.84
72857;BME280;62742;52.136;4.500;2023-04-21T09:30:40;101494.69;;;15.20;68.25
72857;BME280;62742;52.136;4.500;2023-04-21T09:33:13;101488.13;;;15.35;65.98
72857;BME280;62742;52.136;4.500;2023-04-21T09:35:42;101491.03;;;15.24;66.56
72857;BME280;62742;52.136;4.500;2023-04-21T09:38:10;101489.44;;;15.87;64.09
72857;BME280;62742;52.136;4.500;2023-04-21T09:40:38;101477.75;;;15.95;63.36
72857;BME280;62742;52.136;4.500;2023-04-21T09:43:06;101482.28;;;15.57;66.49
72857;BME280;62742;52.136;4.500;2023-04-21T09:45:32;101487.19;;;15.72;63.46
72857;BME280;62742;52.136;4.500;2023-04-21T09:47:59;101488.28;;;15.98;63.91
72857;BME280;62742;52.136;4.500;2023-04-21T09:50:27;101470.75;;;15.94;63.01
72857;BME280;62742;52.136;4.500;2023-04-21T09:52:55;101477.41;;;15.74;62.74
72857;BME280;62742;52.136;4.500;2023-04-21T09:55:23;101477.41;;;16.07;61.21
72857;BME280;62742;52.136;4.500;2023-04-21T09:57:56;101471.03;;;16.44;62.42
72857;BME280;62742;52.136;4.500;2023-04-21T10:00:25;101469.50;;;16.65;61.99
72857;BME280;62742;52.136;4.500;2023-04-21T10:02:59;101470.78;;;15.92;61.37
72857;BME280;62742;52.136;4.500;2023-04-21T10:05:29;101476.16;;;16.20;60.60
72857;BME280;62742;52.136;4.500;2023-04-21T10:07:56;101470.06;;;15.85;62.62
72857;BME280;62742;52.136;4.500;2023-04-21T10:10:28;101473.25;;;16.30;60.87
72857;BME280;62742;52.136;4.500;2023-04-21T10:12:58;101472.56;;;16.81;62.68
72857;BME280;62742;52.136;4.500;2023-04-21T10:15:28;101464.75;;;17.05;60.13
72857;BME280;62742;52.136;4.500;2023-04-21T10:20:57;101464.09;;;16.98;61.47
72857;BME280;62742;52.136;4.500;2023-04-21T10:23:40;101469.47;;;17.23;58.88
72857;BME280;62742;52.136;4.500;2023-04-21T10:26:11;101455.47;;;16.61;58.47
72857;BME280;62742;52.136;4.500;2023-04-21T10:28:59;101453.59;;;16.95;60.65
72857;BME280;62742;52.136;4.500;2023-04-21T10:31:30;101450.88;;;17.23;59.73
72857;BME280;62742;52.136;4.500;2023-04-21T10:34:16;101442.06;;;16.94;58.69
72857;BME280;62742;52.136;4.500;2023-04-21T10:39:28;101440.66;;;17.11;59.11
72857;BME280;62742;52.136;4.500;2023-04-21T10:41:57;101434.50;;;17.10;59.70
72857;BME280;62742;52.136;4.500;2023-04-21T10:44:51;101434.69;;;17.04;57.35
72857;BME280;62742;52.136;4.500;2023-04-21T10:47:27;101430.88;;;17.38;57.94
72857;BME280;62742;52.136;4.500;2023-04-21T10:52:42;101428.00;;;17.19;60.75
72857;BME280;62742;52.136;4.500;2023-04-21T10:55:09;101421.31;;;17.34;58.42
72857;BME280;62742;52.136;4.500;2023-04-21T10:57:37;101420.16;;;17.66;56.72
72857;BME280;62742;52.136;4.500;2023-04-21T11:00:07;101411.41;;;17.12;57.10
72857;BME280;62742;52.136;4.500;2023-04-21T11:02:34;101431.28;;;16.14;60.19
72857;BME280;62742;52.136;4.500;2023-04-21T11:05:01;101414.59;;;16.39;59.55
72857;BME280;62742;52.136;4.500;2023-04-21T11:07:27;101411.81;;;16.72;60.34
72857;BME280;62742;52.136;4.500;2023-04-21T11:12:25;101413.53;;;16.44;59.36
72857;BME280;62742;52.136;4.500;2023-04-21T11:14:57;101415.25;;;16.17;61.78
72857;BME280;62742;52.136;4.500;2023-04-21T11:17:23;101411.81;;;16.72;61.14
72857;BME280;62742;52.136;4.500;2023-04-21T11:19:51;101401.75;;;17.10;58.49
72857;BME280;62742;52.136;4.500;2023-04-21T11:22:22;101402.19;;;17.23;57.97
72857;BME280;62742;52.136;4.500;2023-04-21T11:24:50;101389.53;;;18.50;56.31
72857;BME280;62742;52.136;4.500;2023-04-21T11:27:19;101389.13;;;17.42;57.96
72857;BME280;62742;52.136;4.500;2023-04-21T11:29:47;101380.63;;;17.57;58.19
72857;BME280;62742;52.136;4.500;2023-04-21T11:32:15;101377.19;;;17.28;58.77
72857;BME280;62742;52.136;4.500;2023-04-21T11:34:41;101379.50;;;17.39;58.46
72857;BME280;62742;52.136;4.500;2023-04-21T11:37:08;101374.84;;;17.69;57.37
72857;BME280;62742;52.136;4.500;2023-04-21T11:39:39;101374.19;;;17.88;57.70
72857;BME280;62742;52.136;4.500;2023-04-21T11:42:06;101369.28;;;17.27;57.04
72857;BME280;62742;52.136;4.500;2023-04-21T11:44:33;101370.00;;;17.07;57.48
72857;BME280;62742;52.136;4.500;2023-04-21T11:47:19;101363.63;;;17.37;59.14
72857;BME280;62742;52.136;4.500;2023-04-21T11:49:53;101366.06;;;16.63;61.04
72857;BME280;62742;52.136;4.500;2023-04-21T11:52:23;101361.22;;;16.21;63.51
72857;BME280;62742;52.136;4.500;2023-04-21T11:55:05;101346.38;;;16.44;58.81
72857;BME280;62742;52.136;4.500;2023-04-21T11:57:44;101348.34;;;16.66;59.05
72857;BME280;62742;52.136;4.500;2023-04-21T12:00:11;101344.97;;;17.39;59.17
72857;BME280;62742;52.136;4.500;2023-04-21T12:02:40;101349.34;;;16.61;56.96
72857;BME280;62742;52.136;4.500;2023-04-21T12:05:08;101344.66;;;16.70;58.60
72857;BME280;62742;52.136;4.500;2023-04-21T12:07:43;101349.47;;;16.30;57.49
72857;BME280;62742;52.136;4.500;2023-04-21T12:10:12;101331.16;;;16.49;59.40
72857;BME280;62742;52.136;4.500;2023-04-21T12:12:41;101344.56;;;16.73;59.17
72857;BME280;62742;52.136;4.500;2023-04-21T12:15:09;101342.00;;;17.22;59.75
72857;BME280;62742;52.136;4.500;2023-04-21T12:17:37;101339.97;;;17.30;57.45
72857;BME280;62742;52.136;4.500;2023-04-21T12:20:04;101348.19;;;16.69;60.09
72857;BME280;62742;52.136;4.500;2023-04-21T12:22:32;101352.03;;;16.33;62.06
72857;BME280;62742;52.136;4.500;2023-04-21T12:24:58;101343.22;;;16.03;63.14
72857;BME280;62742;52.136;4.500;2023-04-21T12:27:25;101342.66;;;15.92;64.01
72857;BME280;62742;52.136;4.500;2023-04-21T12:29:52;101338.59;;;15.48;65.17
72857;BME280;62742;52.136;4.500;2023-04-21T12:32:18;101333.97;;;15.86;66.43
72857;BME280;62742;52.136;4.500;2023-04-21T12:34:46;101322.75;;;15.78;64.65
72857;BME280;62742;52.136;4.500;2023-04-21T12:37:12;101324.09;;;15.92;63.45
72857;BME280;62742;52.136;4.500;2023-04-21T12:39:38;101329.41;;;15.60;64.65
72857;BME280;62742;52.136;4.500;2023-04-21T12:42:04;101325.09;;;15.89;64.22
72857;BME280;62742;52.136;4.500;2023-04-21T12:44:31;101317.88;;;15.94;61.05
72857;BME280;62742;52.136;4.500;2023-04-21T12:46:57;101311.78;;;16.47;62.45
72857;BME280;62742;52.136;4.500;2023-04-21T12:49:23;101309.56;;;16.60;63.41
72857;BME280;62742;52.136;4.500;2023-04-21T12:51:50;101322.06;;;16.30;62.81
72857;BME280;62742;52.136;4.500;2023-04-21T12:54:16;101320.16;;;16.05;63.72
72857;BME280;62742;52.136;4.500;2023-04-21T12:56:42;101311.09;;;16.12;63.22
72857;BME280;62742;52.136;4.500;2023-04-21T12:59:09;101306.47;;;16.47;63.87
72857;BME280;62742;52.136;4.500;2023-04-21T13:01:36;101308.47;;;17.19;62.48
72857;BME280;62742;52.136;4.500;2023-04-21T13:04:04;101308.41;;;17.46;60.97
72857;BME280;62742;52.136;4.500;2023-04-21T13:06:32;101301.13;;;17.51;59.25
72857;BME280;62742;52.136;4.500;2023-04-21T13:08:58;101305.59;;;16.73;60.41